Time;durP1;ratioP1;P1;durP2;ratioP2;P2;SDS_P1;SDS_P2;PMS_P1;PMS_P2;Temp;Humidity;BMP_temperature;BMP_pressure;BME280_temperature;BME280_humidity;BME280_pressure;Samples;Min_cycle;Max_cycle;Signal;HPM_P1;HPM_P2
2021/12/05 00:24:21;;;;;;;22.08;11.02;;;;;;;-1.41;100.00;97517.81;5025249;28;20053;-60
2021/12/05 00:27:20;;;;;;;25.85;10.80;;;;;;;-1.39;100.00;97510.03;5024853;28;20050;-60
2021/12/05 00:57:16;;;;;;;18.95;11.23;;;;;;;-1.35;100.00;97526.16;5033058;28;20041;-58
2021/12/05 01:12:08;;;;;;;18.95;10.60;;;;;;;-1.24;100.00;97509.41;5032630;28;20045;-59
2021/12/05 01:15:07;;;;;;;22.33;10.23;;;;;;;-1.22;100.00;97496.47;5037411;28;20042;-62
2021/12/05 01:20:55;;;;;;;22.27;11.52;;;;;;;-1.25;100.00;97499.19;5031777;28;20045;-60
2021/12/05 01:26:43;;;;;;;20.38;11.13;;;;;;;-1.16;100.00;97503.13;5032721;28;20041;-59
2021/12/05 01:47:44;;;;;;;31.33;13.32;;;;;;;-1.50;100.00;97485.59;5031442;28;20160;-61
2021/12/05 01:51:14;;;;;;;23.75;11.80;;;;;;;-1.34;100.00;97492.69;5032010;28;20038;-60
2021/12/05 02:15:50;;;;;;;27.58;12.43;;;;;;;-1.39;100.00;97485.16;5030682;28;20049;-59
2021/12/05 02:31:13;;;;;;;27.17;12.30;;;;;;;-1.33;100.00;97468.66;5031837;28;20399;-61
2021/12/05 02:40:23;;;;;;;25.15;13.05;;;;;;;-1.48;100.00;97446.97;5030738;28;20045;-60
2021/12/05 02:43:12;;;;;;;29.17;12.65;;;;;;;-1.40;100.00;97452.66;5022127;28;20325;-61
2021/12/05 02:46:01;;;;;;;28.48;12.40;;;;;;;-1.45;100.00;97453.75;5030568;28;20045;-60
2021/12/05 02:48:47;;;;;;;21.77;11.70;;;;;;;-1.44;100.00;97455.41;5031925;28;20465;-58
2021/12/05 02:51:35;;;;;;;28.80;13.25;;;;;;;-1.40;100.00;97457.78;5030607;28;20041;-61
2021/12/05 02:54:24;;;;;;;22.70;12.70;;;;;;;-1.37;100.00;97460.22;5031071;28;20053;-59
2021/12/05 02:57:10;;;;;;;24.67;12.60;;;;;;;-1.34;100.00;97458.44;5031444;28;20049;-61
2021/12/05 02:59:59;;;;;;;27.13;12.38;;;;;;;-1.43;100.00;97459.63;5017060;28;20041;-61
2021/12/05 03:02:48;;;;;;;23.85;11.35;;;;;;;-1.45;100.00;97458.88;5030390;28;20049;-57
2021/12/05 03:05:33;;;;;;;28.77;12.65;;;;;;;-1.45;100.00;97474.31;5031142;28;20473;-61
2021/12/05 03:08:19;;;;;;;25.95;12.50;;;;;;;-1.33;100.00;97465.25;5031104;28;20046;-61
2021/12/05 03:11:05;;;;;;;26.30;12.65;;;;;;;-1.34;100.00;97484.13;5034042;28;20045;-59
2021/12/05 03:13:51;;;;;;;25.73;12.52;;;;;;;-1.32;100.00;97483.16;5035061;28;20041;-61
2021/12/05 03:16:42;;;;;;;25.27;13.13;;;;;;;-1.37;100.00;97467.94;5034007;28;20112;-61
2021/12/05 03:19:30;;;;;;;24.65;12.35;;;;;;;-1.39;100.00;97485.16;5025831;28;20372;-60
2021/12/05 03:22:17;;;;;;;27.52;12.00;;;;;;;-1.08;100.00;97488.22;5033328;28;20045;-61
2021/12/05 03:25:06;;;;;;;27.23;13.35;;;;;;;-1.15;100.00;97476.50;5033281;28;20041;-59
2021/12/05 03:27:53;;;;;;;26.35;13.65;;;;;;;-1.26;100.00;97482.09;5032241;28;20037;-59
2021/12/05 03:30:39;;;;;;;28.73;12.57;;;;;;;-1.29;100.00;97479.66;5033710;28;20041;-59
2021/12/05 03:33:25;;;;;;;26.60;13.63;;;;;;;-1.27;100.00;97486.41;5033571;28;20049;-60
2021/12/05 03:36:11;;;;;;;25.27;12.18;;;;;;;-1.24;100.00;97475.97;5031462;28;20049;-59
2021/12/05 03:38:59;;;;;;;24.50;12.68;;;;;;;-1.23;100.00;97479.41;5033868;28;20046;-60
2021/12/05 03:41:47;;;;;;;28.65;14.05;;;;;;;-1.23;100.00;97487.13;5034506;28;20398;-59
2021/12/05 03:44:36;;;;;;;32.58;13.45;;;;;;;-1.33;100.00;97467.81;5033555;28;20045;-60
2021/12/05 03:47:27;;;;;;;23.92;12.70;;;;;;;-1.25;100.00;97486.31;5033574;28;20038;-58
2021/12/05 03:50:16;;;;;;;29.75;13.93;;;;;;;-1.39;100.00;97486.91;5032867;28;20392;-61
2021/12/05 03:53:08;;;;;;;24.90;12.43;;;;;;;-1.47;100.00;97494.06;5033016;28;20053;-60
2021/12/05 03:55:56;;;;;;;28.08;13.45;;;;;;;-1.41;100.00;97492.09;5024823;28;20046;-56
2021/12/05 03:58:44;;;;;;;28.75;12.98;;;;;;;-1.33;100.00;97496.94;5034084;28;20472;-60
2021/12/05 04:01:32;;;;;;;23.95;12.65;;;;;;;-1.27;100.00;97498.41;5033915;28;20033;-56
2021/12/05 04:04:18;;;;;;;26.38;11.90;;;;;;;-1.29;100.00;97488.19;5033035;28;20053;-56
2021/12/05 04:07:05;;;;;;;24.95;12.77;;;;;;;-1.26;100.00;97507.81;5032674;28;20209;-57
2021/12/05 04:09:52;;;;;;;25.65;12.35;;;;;;;-1.12;100.00;97491.81;5033670;28;20049;-58
2021/12/05 04:12:38;;;;;;;26.00;12.75;;;;;;;-1.21;100.00;97492.19;5032550;28;20388;-60
2021/12/05 04:15:25;;;;;;;23.58;12.18;;;;;;;-1.17;100.00;97504.84;5019014;28;20045;-60
2021/12/05 04:18:11;;;;;;;24.13;12.15;;;;;;;-1.14;100.00;97509.00;5033680;28;20049;-60
2021/12/05 04:20:58;;;;;;;23.77;11.82;;;;;;;-1.10;100.00;97513.16;5032136;28;20041;-60
2021/12/05 04:23:46;;;;;;;28.05;12.45;;;;;;;-1.07;100.00;97519.88;5024568;28;20041;-59
2021/12/05 04:26:34;;;;;;;27.67;13.38;;;;;;;-1.18;100.00;97513.47;5032463;28;20045;-61
2021/12/05 04:29:20;;;;;;;25.73;12.88;;;;;;;-1.17;100.00;97516.84;5018514;28;20045;-60
2021/12/05 04:32:06;;;;;;;27.58;13.30;;;;;;;-1.19;100.00;97513.53;5032532;28;20045;-61
2021/12/05 04:34:53;;;;;;;23.73;12.73;;;;;;;-1.12;100.00;97515.78;5032283;28;20041;-58
2021/12/05 04:37:39;;;;;;;26.33;12.68;;;;;;;-1.18;100.00;97515.19;5033624;28;20045;-59
2021/12/05 04:40:25;;;;;;;26.92;13.55;;;;;;;-1.09;100.00;97524.28;5033163;28;20049;-55
2021/12/05 04:43:11;;;;;;;27.20;12.60;;;;;;;-1.09;100.00;97522.53;5032207;28;20045;-59
2021/12/05 04:45:58;;;;;;;30.67;12.68;;;;;;;-1.11;100.00;97514.06;5031956;28;20045;-58
2021/12/05 04:48:47;;;;;;;26.88;12.70;;;;;;;-1.13;100.00;97510.72;5032218;28;20046;-59
2021/12/05 04:51:38;;;;;;;24.42;12.05;;;;;;;-1.01;100.00;97517.91;5037747;28;20046;-55
2021/12/05 04:54:26;;;;;;;30.42;13.52;;;;;;;-1.03;100.00;97529.97;5031830;28;20057;-59
2021/12/05 04:57:12;;;;;;;27.95;12.45;;;;;;;-1.03;100.00;97526.59;5023866;28;20041;-61
2021/12/05 04:59:58;;;;;;;27.27;12.48;;;;;;;-1.25;100.00;97532.59;5031798;28;20041;-59
2021/12/05 05:02:44;;;;;;;26.77;12.25;;;;;;;-1.13;100.00;97539.81;5031805;28;20038;-60
2021/12/05 05:05:31;;;;;;;27.73;12.27;;;;;;;-0.95;100.00;97528.84;5031307;28;20045;-60
2021/12/05 05:08:18;;;;;;;27.15;13.20;;;;;;;-1.15;100.00;97515.91;5032542;28;20049;-60
2021/12/05 05:11:07;;;;;;;24.95;12.40;;;;;;;-1.13;100.00;97533.84;5023708;28;20041;-56
2021/12/05 05:13:53;;;;;;;29.00;14.35;;;;;;;-1.38;100.00;97517.69;5031879;28;20033;-57
2021/12/05 05:16:39;;;;;;;27.48;13.65;;;;;;;-1.21;100.00;97549.59;5032797;28;20488;-57
2021/12/05 05:19:30;;;;;;;26.58;12.55;;;;;;;-1.17;100.00;97558.84;5031595;28;20392;-60
2021/12/05 05:46:16;;;;;;;24.27;11.43;;;;;;;-1.04;100.00;97602.88;5021900;28;20045;-60
2021/12/05 05:49:22;;;;;;;26.20;11.88;;;;;;;-1.11;100.00;97593.75;5030028;28;20046;-60
2021/12/05 05:52:08;;;;;;;22.65;10.45;;;;;;;-1.12;100.00;97604.94;5030683;28;20387;-60
2021/12/05 05:54:57;;;;;;;22.90;11.52;;;;;;;-1.18;100.00;97611.16;5028356;28;20045;-59
2021/12/05 06:00:37;;;;;;;25.08;10.95;;;;;;;-1.08;100.00;97614.19;5029067;28;20045;-56
2021/12/05 06:03:22;;;;;;;21.77;10.23;;;;;;;-1.19;100.00;97618.94;5030876;28;20465;-59
2021/12/05 06:06:11;;;;;;;26.08;10.30;;;;;;;-0.97;100.00;97633.50;5028966;28;20049;-59
2021/12/05 06:08:58;;;;;;;19.15;9.77;;;;;;;-0.96;100.00;97615.44;5030795;28;20045;-63
2021/12/05 06:11:44;;;;;;;20.00;9.18;;;;;;;-0.88;100.00;97605.69;5031789;28;20044;-65
2021/12/05 06:14:30;;;;;;;19.85;9.55;;;;;;;-1.02;100.00;97605.41;5030916;28;20052;-63
2021/12/05 06:17:18;;;;;;;18.55;9.00;;;;;;;-1.01;100.00;97600.19;5030740;28;20132;-61
2021/12/05 06:20:13;;;;;;;16.48;8.63;;;;;;;-0.94;100.00;97598.22;5031632;28;20057;-62
2021/12/05 06:22:59;;;;;;;17.38;8.55;;;;;;;-0.99;100.00;97605.28;5031728;28;20056;-63
2021/12/05 06:25:49;;;;;;;14.80;7.93;;;;;;;-1.00;100.00;97601.84;5031574;28;20056;-60
2021/12/05 06:28:44;;;;;;;16.70;7.90;;;;;;;-0.96;100.00;97591.47;5030244;28;20041;-64
2021/12/05 06:40:56;;;;;;;14.50;7.38;;;;;;;-0.97;100.00;97549.47;5029781;28;20384;-58
2021/12/05 06:46:34;;;;;;;11.88;6.57;;;;;;;-1.08;100.00;97554.22;5035041;28;20044;-66
2021/12/05 06:49:20;;;;;;;11.82;6.07;;;;;;;-0.96;100.00;97571.72;5033549;28;20064;-58
2021/12/05 06:52:07;;;;;;;13.60;6.97;;;;;;;-1.01;100.00;97574.47;5034396;28;20430;-63
2021/12/05 06:54:53;;;;;;;12.98;6.60;;;;;;;-0.93;100.00;97605.03;5032236;28;20061;-60
2021/12/05 06:57:40;;;;;;;13.77;6.60;;;;;;;-0.65;100.00;97626.22;5056001;28;20033;-61
2021/12/05 07:00:29;;;;;;;13.60;6.90;;;;;;;-0.28;100.00;97629.00;5038556;28;20064;-61
2021/12/05 07:03:14;;;;;;;17.02;8.00;;;;;;;-0.29;100.00;97635.03;5034242;28;20044;-60
2021/12/05 07:06:12;;;;;;;12.45;5.50;;;;;;;-0.19;100.00;97631.19;5032721;28;20052;-64
2021/12/05 07:09:03;;;;;;;9.70;4.43;;;;;;;1.16;100.00;97638.09;5034974;28;20056;-55
2021/12/05 07:15:08;;;;;;;12.68;4.72;;;;;;;0.49;100.00;97644.56;5031345;28;20060;-60
2021/12/05 07:24:11;;;;;;;11.82;6.28;;;;;;;-0.13;100.00;97666.97;5034509;28;20049;-61
2021/12/05 07:42:23;;;;;;;15.00;6.70;;;;;;;-0.04;100.00;97675.22;5038962;28;20068;-61
2021/12/05 07:45:16;;;;;;;;;;;;;;;0.09;100.00;97672.94;5038594;28;20404;-64
2021/12/05 07:48:11;;;;;;;14.48;7.10;;;;;;;0.26;100.00;97674.81;5033761;28;19917;-55
2021/12/05 07:54:26;;;;;;;15.73;7.93;;;;;;;-0.08;100.00;97696.84;5033226;28;20052;-54
2021/12/05 07:57:26;;;;;;;11.45;6.13;;;;;;;0.09;100.00;97701.28;5032864;28;20040;-59
2021/12/05 08:00:22;;;;;;;15.00;7.37;;;;;;;1.30;100.00;97683.88;5033120;28;20392;-58
2021/12/05 08:15:34;;;;;;;17.42;8.80;;;;;;;-0.14;100.00;97680.75;5024123;28;20060;-53
2021/12/05 08:18:20;;;;;;;19.77;9.60;;;;;;;-0.34;100.00;97678.19;5037240;28;20048;-56
2021/12/05 08:21:08;;;;;;;15.68;8.90;;;;;;;-0.21;100.00;97679.31;5032460;28;20758;-57
2021/12/05 08:23:54;;;;;;;14.73;7.93;;;;;;;-0.19;100.00;97681.84;5031641;28;20056;-62
2021/12/05 08:26:42;;;;;;;18.70;8.48;;;;;;;-0.03;100.00;97682.03;5033107;28;20052;-58
2021/12/05 08:32:38;;;;;;;15.30;8.27;;;;;;;-0.51;100.00;97652.22;5032600;28;20049;-60
2021/12/05 09:21:46;;;;;;;24.23;9.30;;;;;;;-0.30;100.00;97714.03;5030261;28;20389;-57
2021/12/05 10:07:03;;;;;;;21.52;10.30;;;;;;;0.74;99.60;97705.34;5036691;28;20291;-72
2021/12/05 10:10:11;;;;;;;22.92;11.05;;;;;;;0.75;100.00;97706.19;5030441;28;20388;-64
2021/12/05 10:26:25;;;;;;;27.00;11.35;;;;;;;1.19;98.98;97723.09;5031959;28;20061;-61
2021/12/05 10:34:05;;;;;;;29.25;13.00;;;;;;;1.35;100.00;97712.88;5012787;28;20052;-65
2021/12/05 10:37:13;;;;;;;32.72;13.05;;;;;;;1.01;100.00;97710.16;5032566;28;20401;-64
2021/12/05 10:40:12;;;;;;;51.13;16.33;;;;;;;1.33;100.00;97709.53;5032139;28;20072;-64
2021/12/05 10:42:58;;;;;;;36.13;14.00;;;;;;;1.65;100.00;97707.13;5032481;28;20444;-61
2021/12/05 10:45:50;;;;;;;32.83;13.80;;;;;;;1.56;100.00;97694.69;5030713;28;20049;-64
2021/12/05 10:48:39;;;;;;;35.20;14.07;;;;;;;1.70;100.00;97694.00;5022537;28;20068;-59
2021/12/05 10:51:29;;;;;;;29.77;12.60;;;;;;;1.98;100.00;97687.47;5036213;28;20045;-61
2021/12/05 10:54:20;;;;;;;31.58;13.60;;;;;;;2.67;100.00;97677.03;5028476;28;20496;-61
2021/12/05 10:57:05;;;;;;;30.65;14.10;;;;;;;2.69;100.00;97657.06;5030286;28;20042;-61
2021/12/05 10:59:51;;;;;;;36.22;13.60;;;;;;;2.12;100.00;97662.66;5034920;28;20388;-61
2021/12/05 11:02:38;;;;;;;39.50;14.65;;;;;;;3.32;100.00;97662.31;5030253;28;20068;-61
2021/12/05 11:05:35;;;;;;;34.40;13.02;;;;;;;3.35;100.00;97634.56;5029206;28;20064;-60
2021/12/05 11:08:37;;;;;;;31.85;13.75;;;;;;;2.16;100.00;97634.00;5029752;28;20056;-56
2021/12/05 11:11:43;;;;;;;29.20;12.90;;;;;;;3.20;100.00;97627.59;5031590;28;20044;-59
2021/12/05 11:14:33;;;;;;;32.85;12.40;;;;;;;3.11;100.00;97637.63;5035758;28;20111;-62
2021/12/05 11:17:23;;;;;;;33.25;13.40;;;;;;;3.12;100.00;97639.31;5035053;28;20052;-58
2021/12/05 11:20:09;;;;;;;33.60;12.52;;;;;;;3.39;100.00;97630.88;5031260;28;20072;-59
2021/12/05 11:22:56;;;;;;;30.27;11.20;;;;;;;4.01;100.00;97644.59;5022872;28;20412;-60
2021/12/05 11:25:44;;;;;;;33.90;13.68;;;;;;;4.55;100.00;97645.72;5050431;28;20052;-60
2021/12/05 11:28:30;;;;;;;24.27;10.88;;;;;;;3.38;97.50;97637.81;5029549;28;20076;-60
2021/12/05 11:31:28;;;;;;;23.70;11.18;;;;;;;3.83;100.00;97649.97;5031859;28;20061;-60
2021/12/05 11:34:28;;;;;;;24.20;10.48;;;;;;;3.61;100.00;97652.97;5034057;28;20045;-59
2021/12/05 11:37:14;;;;;;;25.25;11.48;;;;;;;3.49;100.00;97660.53;5039299;28;20052;-59
2021/12/05 11:40:05;;;;;;;25.75;12.90;;;;;;;3.64;100.00;97663.97;5019895;28;20384;-60
2021/12/05 11:43:04;;;;;;;26.10;10.98;;;;;;;4.78;100.00;97653.84;5039906;28;20495;-60
2021/12/05 11:46:16;;;;;;;26.98;11.57;;;;;;;4.40;100.00;97655.25;5034858;28;20049;-60
2021/12/05 11:49:13;;;;;;;26.92;11.70;;;;;;;3.51;99.29;97650.88;5030874;28;20048;-68
2021/12/05 11:52:02;;;;;;;26.88;11.27;;;;;;;3.65;100.00;97664.81;5032706;28;20052;-59
2021/12/05 11:54:50;;;;;;;24.30;10.52;;;;;;;4.24;100.00;97661.38;5019402;28;20056;-60
2021/12/05 11:57:36;;;;;;;27.80;10.75;;;;;;;3.80;100.00;97656.13;5033679;28;20488;-60
2021/12/05 12:00:24;;;;;;;25.90;12.15;;;;;;;3.50;100.00;97658.75;5033494;28;20049;-63
2021/12/05 12:03:11;;;;;;;25.60;11.13;;;;;;;3.17;99.96;97673.50;5033448;28;20412;-61
2021/12/05 12:05:57;;;;;;;22.15;9.15;;;;;;;4.41;100.00;97670.72;5034688;28;20036;-59
2021/12/05 12:08:43;;;;;;;32.78;13.70;;;;;;;3.59;95.98;97663.38;5035578;28;20071;-61
2021/12/05 12:11:30;;;;;;;35.33;14.93;;;;;;;2.48;95.72;97660.84;5039270;28;20068;-60
2021/12/05 12:14:15;;;;;;;29.63;14.68;;;;;;;1.92;99.39;97656.78;5032072;28;20044;-59
2021/12/05 12:17:05;;;;;;;32.10;14.07;;;;;;;1.31;97.93;97663.16;5032118;28;20064;-65
2021/12/05 12:19:54;;;;;;;28.88;14.20;;;;;;;0.93;100.00;97661.47;5032569;28;20048;-61
2021/12/05 12:22:40;;;;;;;28.33;13.43;;;;;;;0.89;100.00;97661.69;5031764;28;20052;-59
2021/12/05 12:25:30;;;;;;;32.72;14.95;;;;;;;0.36;100.00;97650.28;5020990;28;20049;-59
2021/12/05 12:28:17;;;;;;;30.58;14.43;;;;;;;0.28;100.00;97626.59;5029847;28;20064;-60
2021/12/05 12:31:28;;;;;;;28.33;14.00;;;;;;;0.67;100.00;97640.31;5032341;28;20052;-61
2021/12/05 12:34:19;;;;;;;34.42;15.27;;;;;;;0.79;100.00;97641.50;5031708;28;20049;-60
2021/12/05 12:37:06;;;;;;;29.40;13.38;;;;;;;0.76;100.00;97639.06;5036918;28;20431;-63
2021/12/05 12:39:52;;;;;;;30.35;12.07;;;;;;;1.80;100.00;97638.41;5030760;28;20048;-57
2021/12/05 12:42:38;;;;;;;33.55;14.48;;;;;;;1.45;97.93;97631.50;5030993;28;20048;-57
2021/12/05 12:45:24;;;;;;;33.17;13.82;;;;;;;0.67;100.00;97627.44;5029518;28;20040;-60
2021/12/05 12:48:16;;;;;;;27.55;13.00;;;;;;;0.86;100.00;97632.56;5033208;28;20087;-64
2021/12/05 12:51:02;;;;;;;;;;;;;;;0.91;100.00;97634.09;5034057;28;20416;-62
2021/12/05 12:53:54;;;;;;;28.25;13.05;;;;;;;0.74;100.00;97640.88;5037490;28;20016;-56
2021/12/05 12:56:43;;;;;;;30.42;14.23;;;;;;;0.38;100.00;97642.47;5018100;28;20060;-62
2021/12/05 12:59:32;;;;;;;30.05;13.73;;;;;;;0.64;100.00;97648.19;5032667;28;20040;-60
2021/12/05 13:05:33;;;;;;;35.15;13.70;;;;;;;1.00;100.00;97633.66;5030876;28;20054;-58
2021/12/05 13:11:30;;;;;;;38.75;15.18;;;;;;;0.35;100.00;97630.56;5038813;28;20056;-60
2021/12/05 13:14:18;;;;;;;29.67;14.57;;;;;;;0.23;100.00;97637.09;5031686;28;20384;-52
2021/12/05 13:17:04;;;;;;;42.17;17.67;;;;;;;0.28;100.00;97647.19;5036549;28;20060;-54
2021/12/05 13:19:59;;;;;;;35.95;15.13;;;;;;;0.39;100.00;97651.06;5037921;28;20048;-61
2021/12/05 13:23:01;;;;;;;42.47;15.52;;;;;;;0.48;100.00;97650.63;5038022;28;20049;-57
2021/12/05 13:26:12;;;;;;;44.63;19.20;;;;;;;0.46;100.00;97640.41;5033516;28;20049;-62
2021/12/05 13:29:22;;;;;;;38.25;16.52;;;;;;;0.32;100.00;97630.72;5033229;28;20064;-61
2021/12/05 13:32:13;;;;;;;40.88;16.65;;;;;;;-0.01;100.00;97639.00;5032729;28;20056;-61
2021/12/05 13:35:08;;;;;;;36.10;16.33;;;;;;;0.28;100.00;97636.91;5033405;28;20034;-55
2021/12/05 13:37:57;;;;;;;32.65;14.40;;;;;;;0.34;100.00;97630.66;5031947;28;20044;-60
2021/12/05 13:40:45;;;;;;;40.08;16.38;;;;;;;0.30;100.00;97623.94;5037857;28;20044;-60
2021/12/05 13:43:31;;;;;;;40.75;15.90;;;;;;;0.55;100.00;97607.38;5037636;28;20040;-59
2021/12/05 13:46:39;;;;;;;32.90;13.65;;;;;;;0.52;100.00;97610.09;5031775;28;20384;-62
2021/12/05 13:49:36;;;;;;;34.47;15.00;;;;;;;0.44;100.00;97624.16;5037858;28;20052;-57
2021/12/05 13:52:52;;;;;;;37.15;14.98;;;;;;;0.54;100.00;97619.41;5031219;28;20381;-54
2021/12/05 13:55:52;;;;;;;32.63;14.90;;;;;;;0.57;100.00;97621.03;5012263;28;20057;-56
2021/12/05 13:58:41;;;;;;;40.10;16.55;;;;;;;0.45;100.00;97618.13;5017201;28;20049;-61
2021/12/05 14:01:49;;;;;;;40.30;16.50;;;;;;;0.51;100.00;97636.78;5012465;28;20358;-59
2021/12/05 14:04:35;;;;;;;35.97;14.43;;;;;;;0.98;100.00;97649.19;5058159;28;20060;-60
2021/12/05 14:07:26;;;;;;;16.98;7.07;;;;;;;2.77;100.00;97643.75;5028617;28;20163;-51
2021/12/05 14:10:13;;;;;;;38.42;15.80;;;;;;;3.41;100.00;97631.63;5027726;28;20063;-59
2021/12/05 14:12:58;;;;;;;40.95;14.82;;;;;;;2.39;100.00;97646.63;5064086;28;20040;-58
2021/12/05 14:15:44;;;;;;;39.20;15.43;;;;;;;1.59;100.00;97632.56;5031289;28;20072;-58
2021/12/05 14:18:30;;;;;;;22.25;9.38;;;;;;;1.64;100.00;97643.50;5030019;28;20737;-55
2021/12/05 14:21:18;;;;;;;36.40;14.18;;;;;;;2.21;100.00;97646.69;5030652;28;20045;-57
2021/12/05 14:24:05;;;;;;;32.25;12.43;;;;;;;2.02;100.00;97647.66;5062227;28;20427;-59
2021/12/05 14:26:54;;;;;;;28.75;12.63;;;;;;;1.52;100.00;97652.69;5029461;28;20052;-56
2021/12/05 14:29:43;;;;;;;36.35;15.23;;;;;;;1.42;100.00;97657.47;5027998;28;20061;-56
2021/12/05 14:32:32;;;;;;;37.72;15.57;;;;;;;1.15;100.00;97652.72;5048974;28;20092;-60
2021/12/05 14:35:21;;;;;;;35.47;14.88;;;;;;;0.86;100.00;97662.69;5063383;28;20045;-58
2021/12/05 14:38:08;;;;;;;34.13;14.77;;;;;;;0.68;100.00;97647.16;5007344;28;20496;-63
2021/12/05 14:40:54;;;;;;;38.00;15.65;;;;;;;0.80;100.00;97660.41;5030389;28;20036;-58
2021/12/05 14:43:40;;;;;;;34.33;15.32;;;;;;;0.81;100.00;97660.31;5028690;28;20049;-59
2021/12/05 14:46:26;;;;;;;37.65;14.82;;;;;;;0.51;100.00;97652.25;5029364;28;20400;-59
2021/12/05 14:49:12;;;;;;;36.75;15.65;;;;;;;0.36;100.00;97655.44;5029325;28;20053;-57
2021/12/05 14:52:01;;;;;;;37.22;16.33;;;;;;;0.28;100.00;97659.28;5029606;28;20049;-54
2021/12/05 14:54:48;;;;;;;33.88;15.45;;;;;;;0.45;100.00;97667.09;5028794;28;20076;-60
2021/12/05 14:57:49;;;;;;;34.58;14.63;;;;;;;0.71;100.00;97674.53;5029439;28;20393;-59
2021/12/05 15:00:46;;;;;;;39.97;15.98;;;;;;;0.88;100.00;97678.09;5019854;28;20040;-52
2021/12/05 15:03:33;;;;;;;36.53;15.90;;;;;;;0.85;100.00;97689.38;5029492;28;20498;-60
2021/12/05 15:06:19;;;;;;;33.33;14.00;;;;;;;0.97;100.00;97690.56;5032658;28;20041;-58
2021/12/05 15:09:07;;;;;;;32.05;13.60;;;;;;;1.15;100.00;97699.19;5032171;28;20052;-55
2021/12/05 15:11:53;;;;;;;32.42;13.95;;;;;;;1.27;100.00;97704.66;5032243;28;20052;-56
2021/12/05 15:14:42;;;;;;;30.50;13.38;;;;;;;1.48;100.00;97700.22;5031630;28;20045;-58
2021/12/05 15:17:31;;;;;;;30.73;13.13;;;;;;;1.36;100.00;97701.66;5038741;28;20044;-52
2021/12/05 15:20:19;;;;;;;31.02;13.20;;;;;;;1.27;100.00;97702.09;5033546;28;20109;-53
2021/12/05 15:23:10;;;;;;;36.72;14.38;;;;;;;1.10;100.00;97701.97;5032255;28;20036;-54
2021/12/05 15:25:58;;;;;;;39.05;16.33;;;;;;;1.13;100.00;97684.69;5032840;28;20048;-53
2021/12/05 15:28:44;;;;;;;34.28;13.77;;;;;;;1.10;100.00;97675.34;5031507;28;20065;-58
2021/12/05 15:31:40;;;;;;;30.65;12.73;;;;;;;1.13;100.00;97671.78;5033256;28;20044;-61
2021/12/05 15:34:33;;;;;;;32.97;14.93;;;;;;;1.28;100.00;97671.03;5032770;28;20060;-62
2021/12/05 15:37:20;;;;;;;33.67;14.70;;;;;;;1.28;100.00;97662.47;5038562;28;20048;-54
2021/12/05 15:40:06;;;;;;;40.90;18.17;;;;;;;1.13;100.00;97661.47;5034288;28;20045;-59
2021/12/05 15:43:00;;;;;;;37.33;14.57;;;;;;;1.05;100.00;97656.66;5034145;28;20079;-57
2021/12/05 15:45:49;;;;;;;33.33;14.48;;;;;;;1.07;100.00;97657.41;5038493;28;20386;-61
2021/12/05 15:48:37;;;;;;;39.55;14.05;;;;;;;1.04;100.00;97662.72;5034066;28;20060;-58
2021/12/05 15:51:22;;;;;;;34.45;15.45;;;;;;;0.95;100.00;97666.56;5033943;28;20072;-56
2021/12/05 15:54:09;;;;;;;32.50;13.45;;;;;;;1.01;100.00;97655.97;5033838;28;20076;-59
2021/12/05 15:57:13;;;;;;;35.38;14.38;;;;;;;1.13;100.00;97674.38;5034146;28;20388;-59
2021/12/05 16:00:05;;;;;;;27.45;12.75;;;;;;;1.37;100.00;97677.53;5038788;28;20048;-59
2021/12/05 16:03:14;;;;;;;30.42;13.15;;;;;;;1.58;100.00;97675.63;5033144;28;20064;-59
2021/12/05 16:06:00;;;;;;;28.38;12.98;;;;;;;1.72;100.00;97677.53;5034260;28;20503;-60
2021/12/05 16:08:49;;;;;;;29.02;13.13;;;;;;;1.69;100.00;97682.84;5033305;28;20060;-58
2021/12/05 16:11:35;;;;;;;29.67;13.00;;;;;;;1.69;100.00;97677.69;5066675;28;20057;-56
2021/12/05 16:14:35;;;;;;;31.27;12.88;;;;;;;1.83;100.00;97691.63;5033756;28;20151;-62
2021/12/05 16:17:26;;;;;;;25.48;12.18;;;;;;;1.73;100.00;97696.44;5032900;28;20072;-61
2021/12/05 16:20:20;;;;;;;23.80;12.43;;;;;;;1.81;100.00;97707.22;5033486;28;20056;-56
2021/12/05 16:23:07;;;;;;;37.78;15.05;;;;;;;1.55;100.00;97711.91;5033729;28;20049;-56
2021/12/05 16:26:19;;;;;;;36.97;14.32;;;;;;;1.41;100.00;97719.50;5038680;28;20044;-53
2021/12/05 16:29:09;;;;;;;36.00;14.88;;;;;;;1.49;100.00;97735.44;5032447;28;20389;-54
2021/12/05 16:31:58;;;;;;;36.17;13.48;;;;;;;1.67;100.00;97753.53;5038117;28;20388;-59
2021/12/05 16:34:48;;;;;;;34.13;14.38;;;;;;;1.70;100.00;97763.72;5033349;28;20491;-57
2021/12/05 16:37:39;;;;;;;29.63;12.45;;;;;;;1.63;100.00;97767.53;5033638;28;20064;-58
2021/12/05 16:40:30;;;;;;;31.65;12.35;;;;;;;1.54;100.00;97779.13;5031870;28;20056;-53
2021/12/05 16:43:17;;;;;;;39.95;15.38;;;;;;;1.50;100.00;97788.78;5039199;28;20120;-58
2021/12/05 16:46:16;;;;;;;31.50;12.15;;;;;;;1.54;100.00;97792.88;5033183;28;20052;-57
2021/12/05 16:49:09;;;;;;;26.05;12.68;;;;;;;1.44;100.00;97770.97;5023945;28;20056;-59
2021/12/05 16:51:58;;;;;;;36.08;14.50;;;;;;;1.38;99.34;97790.19;5033864;28;20045;-51
2021/12/05 16:54:46;;;;;;;25.80;12.02;;;;;;;1.12;100.00;97793.94;5052896;28;20049;-58
2021/12/05 16:57:43;;;;;;;31.17;12.65;;;;;;;1.20;100.00;97792.69;5053229;28;20538;-58
2021/12/05 17:00:31;;;;;;;28.20;12.32;;;;;;;1.16;100.00;97798.06;5052847;28;20116;-59
2021/12/05 17:03:20;;;;;;;25.30;11.75;;;;;;;1.07;100.00;97787.25;5053090;28;20048;-56
2021/12/05 17:06:10;;;;;;;28.60;11.98;;;;;;;0.95;100.00;97785.22;5053426;28;20051;-60
2021/12/05 17:08:56;;;;;;;26.05;12.98;;;;;;;1.01;100.00;97778.97;5053103;28;20068;-59
2021/12/05 17:11:42;;;;;;;23.77;11.40;;;;;;;1.20;100.00;97787.53;5058147;28;20056;-58
2021/12/05 17:14:28;;;;;;;27.77;11.18;;;;;;;1.18;100.00;97780.75;5052052;28;20044;-60
2021/12/05 17:17:30;;;;;;;25.05;11.85;;;;;;;1.07;100.00;97791.56;5053361;28;20048;-59
2021/12/05 17:20:22;;;;;;;23.38;10.30;;;;;;;0.96;100.00;97784.34;5057447;28;20052;-57
2021/12/05 17:23:12;;;;;;;23.73;11.13;;;;;;;1.25;100.00;97813.13;5052769;28;20071;-58
2021/12/05 17:26:24;;;;;;;29.20;11.80;;;;;;;1.27;100.00;97798.44;5051726;28;20499;-57
2021/12/05 17:29:21;;;;;;;26.23;11.18;;;;;;;1.48;100.00;97799.16;5051384;28;20056;-58
2021/12/05 17:32:21;;;;;;;23.33;11.02;;;;;;;1.55;100.00;97793.72;5051225;28;20392;-57
2021/12/05 17:35:09;;;;;;;25.77;12.18;;;;;;;1.55;99.90;97789.38;5041962;28;20499;-59
2021/12/05 17:37:55;;;;;;;27.48;13.00;;;;;;;1.60;99.50;97794.31;5031359;28;20057;-59
2021/12/05 17:40:41;;;;;;;30.48;12.98;;;;;;;1.66;98.49;97790.63;5036808;28;20044;-59
2021/12/05 17:43:27;;;;;;;24.67;11.70;;;;;;;1.45;97.54;97786.38;5017529;28;20484;-60
2021/12/05 17:46:13;;;;;;;26.80;11.75;;;;;;;1.30;98.36;97777.63;5031699;28;20048;-57
2021/12/05 17:49:01;;;;;;;21.55;11.15;;;;;;;1.12;99.86;97786.22;5031892;28;20045;-60
2021/12/05 17:51:47;;;;;;;23.35;11.80;;;;;;;1.09;100.00;97792.34;5030823;28;20499;-60
2021/12/05 17:54:49;;;;;;;22.40;10.52;;;;;;;1.02;100.00;97788.38;5031563;28;20384;-58
2021/12/05 17:57:41;;;;;;;;;;;;;;;1.09;100.00;97776.88;5032392;28;20040;-58
2021/12/05 18:00:35;;;;;;;24.27;10.00;;;;;;;1.02;100.00;97770.31;5031680;28;19921;-59
2021/12/05 18:03:21;;;;;;;20.50;10.10;;;;;;;1.06;100.00;97764.13;5031761;28;20424;-58
2021/12/05 18:06:08;;;;;;;24.33;11.05;;;;;;;1.10;100.00;97766.47;5031821;28;20476;-58
2021/12/05 18:08:54;;;;;;;20.10;10.02;;;;;;;1.18;100.00;97766.13;5036557;28;20057;-59
2021/12/05 18:11:40;;;;;;;17.40;9.52;;;;;;;1.36;100.00;97766.16;5036422;28;20048;-54
2021/12/05 18:14:26;;;;;;;18.50;9.10;;;;;;;1.32;99.13;97762.88;5031321;28;20044;-58
2021/12/05 18:17:14;;;;;;;37.63;15.40;;;;;;;1.42;99.51;97783.13;5036308;28;20503;-60
2021/12/05 18:20:00;;;;;;;28.08;12.93;;;;;;;1.54;99.15;97779.97;5036433;28;20053;-60
2021/12/05 18:22:47;;;;;;;20.75;10.65;;;;;;;1.74;98.41;97775.59;5030496;28;20048;-60
2021/12/05 18:25:35;;;;;;;22.83;11.30;;;;;;;1.68;97.62;97768.16;5031782;28;20064;-57